sensor_id;sensor_type;location;lat;lon;timestamp;P1;durP1;ratioP1;P2;durP2;ratioP2
74935;SDS011;63501;55.570;37.488;2024-01-16T00:00:50;5.47;;;3.53;;
74935;SDS011;63501;55.570;37.488;2024-01-16T00:03:18;5.72;;;3.50;;
74935;SDS011;63501;55.570;37.488;2024-01-16T00:05:45;5.45;;;3.47;;
74935;SDS011;63501;55.570;37.488;2024-01-16T00:08:14;5.75;;;3.30;;
74935;SDS011;63501;55.570;37.488;2024-01-16T00:10:41;5.15;;;3.30;;
74935;SDS011;63501;55.570;37.488;2024-01-16T00:13:08;6.05;;;3.70;;
74935;SDS011;63501;55.570;37.488;2024-01-16T00:15:35;6.07;;;3.90;;
74935;SDS011;63501;55.570;37.488;2024-01-16T00:18:02;5.43;;;3.13;;
74935;SDS011;63501;55.570;37.488;2024-01-16T00:20:30;6.40;;;3.63;;
74935;SDS011;63501;55.570;37.488;2024-01-16T00:22:57;4.82;;;3.25;;
74935;SDS011;63501;55.570;37.488;2024-01-16T00:25:26;5.10;;;3.25;;
74935;SDS011;63501;55.570;37.488;2024-01-16T00:27:54;5.75;;;3.60;;
74935;SDS011;63501;55.570;37.488;2024-01-16T00:30:21;4.70;;;3.30;;
74935;SDS011;63501;55.570;37.488;2024-01-16T00:32:48;5.07;;;3.10;;
74935;SDS011;63501;55.570;37.488;2024-01-16T00:35:16;6.05;;;3.20;;
74935;SDS011;63501;55.570;37.488;2024-01-16T00:37:43;5.05;;;3.30;;
74935;SDS011;63501;55.570;37.488;2024-01-16T00:40:11;4.45;;;3.33;;
74935;SDS011;63501;55.570;37.488;2024-01-16T00:42:40;4.90;;;3.10;;
74935;SDS011;63501;55.570;37.488;2024-01-16T00:45:07;5.60;;;3.72;;
74935;SDS011;63501;55.570;37.488;2024-01-16T00:50:01;5.75;;;3.60;;
74935;SDS011;63501;55.570;37.488;2024-01-16T00:54:55;4.80;;;3.13;;
74935;SDS011;63501;55.570;37.488;2024-01-16T00:57:23;3.92;;;2.90;;
74935;SDS011;63501;55.570;37.488;2024-01-16T00:59:51;4.88;;;3.15;;
74935;SDS011;63501;55.570;37.488;2024-01-16T01:02:18;6.28;;;3.53;;
74935;SDS011;63501;55.570;37.488;2024-01-16T01:04:46;4.72;;;3.47;;
74935;SDS011;63501;55.570;37.488;2024-01-16T01:07:13;4.78;;;3.13;;
74935;SDS011;63501;55.570;37.488;2024-01-16T01:12:07;4.78;;;3.08;;
74935;SDS011;63501;55.570;37.488;2024-01-16T01:14:35;5.07;;;3.30;;
74935;SDS011;63501;55.570;37.488;2024-01-16T01:17:04;4.00;;;2.92;;
74935;SDS011;63501;55.570;37.488;2024-01-16T01:19:31;7.93;;;3.72;;
74935;SDS011;63501;55.570;37.488;2024-01-16T01:21:59;4.20;;;3.00;;
74935;SDS011;63501;55.570;37.488;2024-01-16T01:24:26;5.13;;;3.45;;
74935;SDS011;63501;55.570;37.488;2024-01-16T01:26:53;4.88;;;2.97;;
74935;SDS011;63501;55.570;37.488;2024-01-16T01:29:20;4.38;;;3.10;;
74935;SDS011;63501;55.570;37.488;2024-01-16T01:31:47;4.88;;;3.28;;
74935;SDS011;63501;55.570;37.488;2024-01-16T01:34:16;4.15;;;3.00;;
74935;SDS011;63501;55.570;37.488;2024-01-16T01:36:43;5.30;;;3.42;;
74935;SDS011;63501;55.570;37.488;2024-01-16T01:39:10;4.70;;;3.33;;
74935;SDS011;63501;55.570;37.488;2024-01-16T01:41:38;4.25;;;2.90;;
74935;SDS011;63501;55.570;37.488;2024-01-16T01:44:05;4.35;;;2.97;;
74935;SDS011;63501;55.570;37.488;2024-01-16T01:46:33;4.43;;;2.92;;
74935;SDS011;63501;55.570;37.488;2024-01-16T01:49:02;4.28;;;3.00;;
74935;SDS011;63501;55.570;37.488;2024-01-16T01:51:31;5.28;;;3.20;;
74935;SDS011;63501;55.570;37.488;2024-01-16T01:54:00;3.95;;;2.80;;
74935;SDS011;63501;55.570;37.488;2024-01-16T01:56:28;3.42;;;2.97;;
74935;SDS011;63501;55.570;37.488;2024-01-16T01:58:56;4.53;;;3.25;;
74935;SDS011;63501;55.570;37.488;2024-01-16T02:01:24;4.03;;;2.75;;
74935;SDS011;63501;55.570;37.488;2024-01-16T02:03:55;3.30;;;2.75;;
74935;SDS011;63501;55.570;37.488;2024-01-16T02:06:23;4.70;;;2.97;;
74935;SDS011;63501;55.570;37.488;2024-01-16T02:08:52;6.18;;;3.00;;
74935;SDS011;63501;55.570;37.488;2024-01-16T02:11:19;3.92;;;2.70;;
74935;SDS011;63501;55.570;37.488;2024-01-16T02:13:46;4.40;;;3.10;;
74935;SDS011;63501;55.570;37.488;2024-01-16T02:16:17;3.72;;;2.90;;
74935;SDS011;63501;55.570;37.488;2024-01-16T02:18:45;3.30;;;2.60;;
74935;SDS011;63501;55.570;37.488;2024-01-16T02:21:13;3.67;;;2.83;;
74935;SDS011;63501;55.570;37.488;2024-01-16T02:23:45;3.80;;;2.80;;
74935;SDS011;63501;55.570;37.488;2024-01-16T02:26:13;3.38;;;2.80;;
74935;SDS011;63501;55.570;37.488;2024-01-16T02:28:41;4.20;;;2.63;;
74935;SDS011;63501;55.570;37.488;2024-01-16T02:31:08;3.55;;;2.78;;
74935;SDS011;63501;55.570;37.488;2024-01-16T02:33:36;4.53;;;2.95;;
74935;SDS011;63501;55.570;37.488;2024-01-16T02:36:03;3.95;;;2.60;;
74935;SDS011;63501;55.570;37.488;2024-01-16T02:40:59;4.03;;;2.83;;
74935;SDS011;63501;55.570;37.488;2024-01-16T02:43:26;3.58;;;2.80;;
74935;SDS011;63501;55.570;37.488;2024-01-16T02:45:53;3.55;;;2.78;;
74935;SDS011;63501;55.570;37.488;2024-01-16T02:48:20;4.18;;;2.85;;
74935;SDS011;63501;55.570;37.488;2024-01-16T02:50:47;4.05;;;2.88;;
74935;SDS011;63501;55.570;37.488;2024-01-16T02:53:15;3.58;;;2.70;;
74935;SDS011;63501;55.570;37.488;2024-01-16T02:55:42;3.97;;;2.70;;
74935;SDS011;63501;55.570;37.488;2024-01-16T02:58:11;3.78;;;2.78;;
74935;SDS011;63501;55.570;37.488;2024-01-16T03:00:38;3.83;;;2.70;;
74935;SDS011;63501;55.570;37.488;2024-01-16T03:03:05;3.15;;;2.53;;
74935;SDS011;63501;55.570;37.488;2024-01-16T03:05:33;3.50;;;2.88;;
74935;SDS011;63501;55.570;37.488;2024-01-16T03:08:00;4.53;;;2.72;;
74935;SDS011;63501;55.570;37.488;2024-01-16T03:10:27;3.30;;;2.67;;
74935;SDS011;63501;55.570;37.488;2024-01-16T03:12:55;3.95;;;2.88;;
74935;SDS011;63501;55.570;37.488;2024-01-16T03:17:51;3.85;;;2.60;;
74935;SDS011;63501;55.570;37.488;2024-01-16T03:20:18;3.58;;;2.63;;
74935;SDS011;63501;55.570;37.488;2024-01-16T03:22:45;3.80;;;2.88;;
74935;SDS011;63501;55.570;37.488;2024-01-16T03:25:12;3.28;;;2.60;;
74935;SDS011;63501;55.570;37.488;2024-01-16T03:27:40;3.88;;;2.35;;
74935;SDS011;63501;55.570;37.488;2024-01-16T03:30:07;3.00;;;2.58;;
74935;SDS011;63501;55.570;37.488;2024-01-16T03:32:37;4.15;;;2.60;;
74935;SDS011;63501;55.570;37.488;2024-01-16T03:35:04;3.90;;;2.42;;
74935;SDS011;63501;55.570;37.488;2024-01-16T03:37:32;3.17;;;2.88;;
74935;SDS011;63501;55.570;37.488;2024-01-16T03:40:00;2.75;;;2.33;;
74935;SDS011;63501;55.570;37.488;2024-01-16T03:42:29;3.45;;;2.67;;
74935;SDS011;63501;55.570;37.488;2024-01-16T03:44:56;3.78;;;2.50;;
74935;SDS011;63501;55.570;37.488;2024-01-16T03:47:23;3.58;;;2.65;;
74935;SDS011;63501;55.570;37.488;2024-01-16T03:49:53;3.72;;;2.95;;
74935;SDS011;63501;55.570;37.488;2024-01-16T03:52:20;4.43;;;2.80;;
74935;SDS011;63501;55.570;37.488;2024-01-16T03:54:48;4.53;;;2.90;;
74935;SDS011;63501;55.570;37.488;2024-01-16T03:57:15;4.80;;;3.05;;
74935;SDS011;63501;55.570;37.488;2024-01-16T03:59:42;28.20;;;6.38;;
74935;SDS011;63501;55.570;37.488;2024-01-16T04:02:09;15.93;;;4.78;;
74935;SDS011;63501;55.570;37.488;2024-01-16T04:04:37;17.48;;;4.68;;
74935;SDS011;63501;55.570;37.488;2024-01-16T04:07:05;10.85;;;3.85;;
74935;SDS011;63501;55.570;37.488;2024-01-16T04:09:32;10.35;;;3.78;;
74935;SDS011;63501;55.570;37.488;2024-01-16T04:12:00;14.80;;;3.90;;
74935;SDS011;63501;55.570;37.488;2024-01-16T04:14:27;9.57;;;3.88;;
74935;SDS011;63501;55.570;37.488;2024-01-16T04:16:54;12.07;;;4.15;;
74935;SDS011;63501;55.570;37.488;2024-01-16T04:19:21;11.30;;;4.15;;
74935;SDS011;63501;55.570;37.488;2024-01-16T04:21:49;12.50;;;4.68;;
74935;SDS011;63501;55.570;37.488;2024-01-16T04:24:17;11.27;;;4.40;;
74935;SDS011;63501;55.570;37.488;2024-01-16T04:26:45;9.23;;;3.15;;
74935;SDS011;63501;55.570;37.488;2024-01-16T04:29:12;16.83;;;4.60;;
74935;SDS011;63501;55.570;37.488;2024-01-16T04:31:39;10.02;;;3.58;;
74935;SDS011;63501;55.570;37.488;2024-01-16T04:34:07;8.40;;;3.78;;
74935;SDS011;63501;55.570;37.488;2024-01-16T04:36:34;6.75;;;3.05;;
74935;SDS011;63501;55.570;37.488;2024-01-16T04:39:01;7.93;;;3.30;;
74935;SDS011;63501;55.570;37.488;2024-01-16T04:41:31;9.13;;;3.78;;
74935;SDS011;63501;55.570;37.488;2024-01-16T04:43:58;8.35;;;3.60;;
74935;SDS011;63501;55.570;37.488;2024-01-16T04:46:25;6.93;;;3.20;;
74935;SDS011;63501;55.570;37.488;2024-01-16T04:48:53;9.48;;;3.70;;
74935;SDS011;63501;55.570;37.488;2024-01-16T04:51:20;6.72;;;3.25;;
74935;SDS011;63501;55.570;37.488;2024-01-16T04:53:47;7.78;;;3.72;;
74935;SDS011;63501;55.570;37.488;2024-01-16T04:56:15;6.65;;;3.30;;
74935;SDS011;63501;55.570;37.488;2024-01-16T04:58:43;6.32;;;3.60;;
74935;SDS011;63501;55.570;37.488;2024-01-16T05:01:12;4.60;;;3.03;;
74935;SDS011;63501;55.570;37.488;2024-01-16T05:03:39;5.05;;;3.20;;
74935;SDS011;63501;55.570;37.488;2024-01-16T05:06:11;4.90;;;3.25;;
74935;SDS011;63501;55.570;37.488;2024-01-16T05:08:40;4.63;;;2.88;;
74935;SDS011;63501;55.570;37.488;2024-01-16T05:11:07;5.85;;;3.40;;
74935;SDS011;63501;55.570;37.488;2024-01-16T05:16:03;5.53;;;3.50;;
74935;SDS011;63501;55.570;37.488;2024-01-16T05:18:31;6.85;;;3.67;;
74935;SDS011;63501;55.570;37.488;2024-01-16T05:20:59;7.32;;;4.50;;
74935;SDS011;63501;55.570;37.488;2024-01-16T05:23:27;6.65;;;4.93;;
74935;SDS011;63501;55.570;37.488;2024-01-16T05:25:54;8.05;;;5.35;;
74935;SDS011;63501;55.570;37.488;2024-01-16T05:28:22;8.60;;;5.32;;
74935;SDS011;63501;55.570;37.488;2024-01-16T05:30:49;7.25;;;5.63;;
74935;SDS011;63501;55.570;37.488;2024-01-16T05:33:17;7.25;;;5.60;;
74935;SDS011;63501;55.570;37.488;2024-01-16T05:35:45;8.38;;;5.30;;
74935;SDS011;63501;55.570;37.488;2024-01-16T05:38:12;9.10;;;5.32;;
74935;SDS011;63501;55.570;37.488;2024-01-16T05:40:39;6.65;;;4.25;;
74935;SDS011;63501;55.570;37.488;2024-01-16T05:43:07;6.45;;;4.13;;
74935;SDS011;63501;55.570;37.488;2024-01-16T05:45:34;5.45;;;3.85;;
74935;SDS011;63501;55.570;37.488;2024-01-16T05:48:01;4.88;;;3.63;;
74935;SDS011;63501;55.570;37.488;2024-01-16T05:50:30;6.13;;;3.60;;
74935;SDS011;63501;55.570;37.488;2024-01-16T05:52:57;4.78;;;3.40;;
74935;SDS011;63501;55.570;37.488;2024-01-16T05:55:24;6.00;;;3.88;;
74935;SDS011;63501;55.570;37.488;2024-01-16T05:57:51;4.45;;;3.38;;
74935;SDS011;63501;55.570;37.488;2024-01-16T06:00:19;6.65;;;4.22;;
74935;SDS011;63501;55.570;37.488;2024-01-16T06:02:48;5.00;;;3.50;;
74935;SDS011;63501;55.570;37.488;2024-01-16T06:05:15;6.15;;;3.25;;
74935;SDS011;63501;55.570;37.488;2024-01-16T06:07:43;5.45;;;3.15;;
74935;SDS011;63501;55.570;37.488;2024-01-16T06:10:11;6.45;;;3.50;;
74935;SDS011;63501;55.570;37.488;2024-01-16T06:12:39;5.72;;;3.95;;
74935;SDS011;63501;55.570;37.488;2024-01-16T06:17:34;5.28;;;3.58;;
74935;SDS011;63501;55.570;37.488;2024-01-16T06:20:01;5.80;;;3.55;;
74935;SDS011;63501;55.570;37.488;2024-01-16T06:22:29;6.15;;;3.85;;
74935;SDS011;63501;55.570;37.488;2024-01-16T06:24:58;5.05;;;3.55;;
74935;SDS011;63501;55.570;37.488;2024-01-16T06:27:27;5.28;;;3.45;;
74935;SDS011;63501;55.570;37.488;2024-01-16T06:29:54;5.95;;;4.10;;
74935;SDS011;63501;55.570;37.488;2024-01-16T06:32:21;5.65;;;3.72;;
74935;SDS011;63501;55.570;37.488;2024-01-16T06:34:48;5.38;;;3.65;;
74935;SDS011;63501;55.570;37.488;2024-01-16T06:37:15;5.88;;;3.45;;
74935;SDS011;63501;55.570;37.488;2024-01-16T06:39:43;5.85;;;3.42;;
74935;SDS011;63501;55.570;37.488;2024-01-16T06:42:12;5.40;;;3.53;;
74935;SDS011;63501;55.570;37.488;2024-01-16T06:44:39;5.32;;;3.60;;
74935;SDS011;63501;55.570;37.488;2024-01-16T06:47:06;6.50;;;4.03;;
74935;SDS011;63501;55.570;37.488;2024-01-16T06:49:33;5.57;;;4.10;;
74935;SDS011;63501;55.570;37.488;2024-01-16T06:52:01;5.15;;;3.80;;
74935;SDS011;63501;55.570;37.488;2024-01-16T06:54:28;4.60;;;3.33;;
74935;SDS011;63501;55.570;37.488;2024-01-16T06:56:55;5.28;;;3.78;;
74935;SDS011;63501;55.570;37.488;2024-01-16T06:59:24;6.63;;;3.88;;
74935;SDS011;63501;55.570;37.488;2024-01-16T07:01:51;4.93;;;3.80;;
74935;SDS011;63501;55.570;37.488;2024-01-16T07:04:20;4.90;;;3.60;;
74935;SDS011;63501;55.570;37.488;2024-01-16T07:06:47;6.22;;;4.10;;
74935;SDS011;63501;55.570;37.488;2024-01-16T07:09:14;6.55;;;4.20;;
74935;SDS011;63501;55.570;37.488;2024-01-16T07:11:43;5.50;;;3.80;;
74935;SDS011;63501;55.570;37.488;2024-01-16T07:16:39;5.35;;;3.55;;
74935;SDS011;63501;55.570;37.488;2024-01-16T07:19:07;6.30;;;4.13;;
74935;SDS011;63501;55.570;37.488;2024-01-16T07:21:34;5.40;;;3.60;;
74935;SDS011;63501;55.570;37.488;2024-01-16T07:24:01;6.10;;;3.97;;
74935;SDS011;63501;55.570;37.488;2024-01-16T07:28:56;5.90;;;3.60;;
74935;SDS011;63501;55.570;37.488;2024-01-16T07:33:52;6.03;;;4.15;;
74935;SDS011;63501;55.570;37.488;2024-01-16T07:36:19;4.82;;;3.88;;
74935;SDS011;63501;55.570;37.488;2024-01-16T07:38:46;5.57;;;4.05;;
74935;SDS011;63501;55.570;37.488;2024-01-16T07:43:41;6.50;;;4.45;;
74935;SDS011;63501;55.570;37.488;2024-01-16T07:46:08;5.70;;;4.00;;
74935;SDS011;63501;55.570;37.488;2024-01-16T07:48:36;5.22;;;3.40;;
74935;SDS011;63501;55.570;37.488;2024-01-16T07:51:05;6.15;;;4.35;;
74935;SDS011;63501;55.570;37.488;2024-01-16T07:53:32;5.65;;;3.90;;
74935;SDS011;63501;55.570;37.488;2024-01-16T07:55:59;6.43;;;4.10;;
74935;SDS011;63501;55.570;37.488;2024-01-16T07:58:27;6.85;;;3.80;;
74935;SDS011;63501;55.570;37.488;2024-01-16T08:00:54;5.35;;;4.00;;
74935;SDS011;63501;55.570;37.488;2024-01-16T08:03:21;6.03;;;3.75;;
74935;SDS011;63501;55.570;37.488;2024-01-16T08:05:48;6.20;;;4.05;;
74935;SDS011;63501;55.570;37.488;2024-01-16T08:08:17;7.93;;;3.90;;
74935;SDS011;63501;55.570;37.488;2024-01-16T08:10:45;6.05;;;4.00;;
74935;SDS011;63501;55.570;37.488;2024-01-16T08:15:39;7.70;;;4.20;;
74935;SDS011;63501;55.570;37.488;2024-01-16T08:18:07;5.97;;;3.72;;
74935;SDS011;63501;55.570;37.488;2024-01-16T08:20:34;6.47;;;4.10;;
74935;SDS011;63501;55.570;37.488;2024-01-16T08:23:01;6.85;;;3.67;;
74935;SDS011;63501;55.570;37.488;2024-01-16T08:25:30;6.43;;;4.20;;
74935;SDS011;63501;55.570;37.488;2024-01-16T08:27:57;5.78;;;3.75;;
74935;SDS011;63501;55.570;37.488;2024-01-16T08:30:26;8.20;;;3.67;;
74935;SDS011;63501;55.570;37.488;2024-01-16T08:32:53;6.55;;;4.10;;
74935;SDS011;63501;55.570;37.488;2024-01-16T08:37:47;5.95;;;3.38;;
74935;SDS011;63501;55.570;37.488;2024-01-16T08:40:15;6.53;;;4.22;;
74935;SDS011;63501;55.570;37.488;2024-01-16T08:42:45;6.63;;;3.63;;
74935;SDS011;63501;55.570;37.488;2024-01-16T08:45:16;5.30;;;3.33;;
74935;SDS011;63501;55.570;37.488;2024-01-16T08:47:44;5.38;;;3.60;;
74935;SDS011;63501;55.570;37.488;2024-01-16T08:50:11;6.43;;;3.88;;
74935;SDS011;63501;55.570;37.488;2024-01-16T08:52:38;6.00;;;3.70;;
74935;SDS011;63501;55.570;37.488;2024-01-16T08:55:06;6.78;;;4.00;;
74935;SDS011;63501;55.570;37.488;2024-01-16T08:57:34;7.50;;;3.78;;
74935;SDS011;63501;55.570;37.488;2024-01-16T09:00:04;5.00;;;3.47;;
74935;SDS011;63501;55.570;37.488;2024-01-16T09:02:34;5.80;;;3.70;;
74935;SDS011;63501;55.570;37.488;2024-01-16T09:05:01;5.05;;;3.47;;
74935;SDS011;63501;55.570;37.488;2024-01-16T09:07:30;4.22;;;3.28;;
74935;SDS011;63501;55.570;37.488;2024-01-16T09:09:57;5.35;;;3.63;;
74935;SDS011;63501;55.570;37.488;2024-01-16T09:12:24;5.00;;;3.60;;
74935;SDS011;63501;55.570;37.488;2024-01-16T09:17:21;6.18;;;2.97;;
74935;SDS011;63501;55.570;37.488;2024-01-16T09:19:48;4.82;;;3.58;;
74935;SDS011;63501;55.570;37.488;2024-01-16T09:22:15;5.18;;;3.50;;
74935;SDS011;63501;55.570;37.488;2024-01-16T09:24:43;5.32;;;3.63;;
74935;SDS011;63501;55.570;37.488;2024-01-16T09:27:10;4.32;;;3.40;;
74935;SDS011;63501;55.570;37.488;2024-01-16T09:29:39;3.90;;;3.13;;
74935;SDS011;63501;55.570;37.488;2024-01-16T09:32:07;4.47;;;3.25;;
74935;SDS011;63501;55.570;37.488;2024-01-16T09:34:36;5.63;;;3.58;;
74935;SDS011;63501;55.570;37.488;2024-01-16T09:37:05;5.70;;;3.90;;
74935;SDS011;63501;55.570;37.488;2024-01-16T09:39:32;4.72;;;3.60;;
74935;SDS011;63501;55.570;37.488;2024-01-16T09:42:03;4.38;;;3.30;;
74935;SDS011;63501;55.570;37.488;2024-01-16T09:44:31;5.07;;;3.47;;
74935;SDS011;63501;55.570;37.488;2024-01-16T09:46:59;5.47;;;3.22;;
74935;SDS011;63501;55.570;37.488;2024-01-16T09:49:29;5.20;;;3.38;;
74935;SDS011;63501;55.570;37.488;2024-01-16T09:51:58;5.00;;;3.42;;
74935;SDS011;63501;55.570;37.488;2024-01-16T09:54:27;5.32;;;3.40;;
74935;SDS011;63501;55.570;37.488;2024-01-16T09:56:54;5.22;;;3.45;;
74935;SDS011;63501;55.570;37.488;2024-01-16T09:59:25;5.05;;;3.30;;
74935;SDS011;63501;55.570;37.488;2024-01-16T10:01:55;4.20;;;3.10;;
74935;SDS011;63501;55.570;37.488;2024-01-16T10:04:23;4.68;;;3.50;;
74935;SDS011;63501;55.570;37.488;2024-01-16T10:06:53;4.78;;;3.63;;
74935;SDS011;63501;55.570;37.488;2024-01-16T10:09:24;4.80;;;3.38;;
74935;SDS011;63501;55.570;37.488;2024-01-16T10:11:52;4.22;;;3.00;;
74935;SDS011;63501;55.570;37.488;2024-01-16T10:16:56;3.53;;;2.92;;
74935;SDS011;63501;55.570;37.488;2024-01-16T10:19:25;4.40;;;3.33;;
74935;SDS011;63501;55.570;37.488;2024-01-16T10:21:56;4.75;;;3.50;;
74935;SDS011;63501;55.570;37.488;2024-01-16T10:24:29;3.95;;;3.20;;
74935;SDS011;63501;55.570;37.488;2024-01-16T10:26:59;5.00;;;3.35;;
74935;SDS011;63501;55.570;37.488;2024-01-16T10:29:28;5.00;;;3.72;;
74935;SDS011;63501;55.570;37.488;2024-01-16T10:31:56;4.55;;;3.50;;
74935;SDS011;63501;55.570;37.488;2024-01-16T10:34:24;5.55;;;3.72;;
74935;SDS011;63501;55.570;37.488;2024-01-16T10:36:52;4.53;;;3.03;;
74935;SDS011;63501;55.570;37.488;2024-01-16T10:39:25;5.32;;;3.17;;
74935;SDS011;63501;55.570;37.488;2024-01-16T10:41:57;4.35;;;3.45;;
74935;SDS011;63501;55.570;37.488;2024-01-16T10:44:25;4.93;;;3.58;;
74935;SDS011;63501;55.570;37.488;2024-01-16T10:47:09;4.18;;;3.17;;
74935;SDS011;63501;55.570;37.488;2024-01-16T10:49:38;4.55;;;3.22;;
74935;SDS011;63501;55.570;37.488;2024-01-16T10:54:36;4.45;;;3.53;;
74935;SDS011;63501;55.570;37.488;2024-01-16T10:57:09;5.75;;;3.70;;
74935;SDS011;63501;55.570;37.488;2024-01-16T10:59:38;5.90;;;3.33;;
74935;SDS011;63501;55.570;37.488;2024-01-16T11:02:18;4.35;;;3.47;;
74935;SDS011;63501;55.570;37.488;2024-01-16T11:04:51;5.50;;;3.40;;
74935;SDS011;63501;55.570;37.488;2024-01-16T11:07:21;4.25;;;2.97;;
74935;SDS011;63501;55.570;37.488;2024-01-16T11:09:51;4.93;;;3.22;;
74935;SDS011;63501;55.570;37.488;2024-01-16T11:12:22;4.25;;;3.17;;
74935;SDS011;63501;55.570;37.488;2024-01-16T11:14:51;4.05;;;3.45;;
74935;SDS011;63501;55.570;37.488;2024-01-16T11:17:19;4.68;;;3.08;;
74935;SDS011;63501;55.570;37.488;2024-01-16T11:19:47;4.30;;;3.10;;
74935;SDS011;63501;55.570;37.488;2024-01-16T11:22:15;3.83;;;2.92;;
74935;SDS011;63501;55.570;37.488;2024-01-16T11:24:44;4.82;;;3.42;;
74935;SDS011;63501;55.570;37.488;2024-01-16T11:27:22;4.20;;;3.03;;
74935;SDS011;63501;55.570;37.488;2024-01-16T11:29:50;3.47;;;3.08;;
74935;SDS011;63501;55.570;37.488;2024-01-16T11:32:32;4.40;;;3.20;;
74935;SDS011;63501;55.570;37.488;2024-01-16T11:35:00;4.50;;;3.30;;
74935;SDS011;63501;55.570;37.488;2024-01-16T11:37:28;4.60;;;3.30;;
74935;SDS011;63501;55.570;37.488;2024-01-16T11:42:49;5.75;;;3.08;;
74935;SDS011;63501;55.570;37.488;2024-01-16T11:48:18;5.05;;;3.10;;
74935;SDS011;63501;55.570;37.488;2024-01-16T11:50:46;5.40;;;3.42;;
74935;SDS011;63501;55.570;37.488;2024-01-16T12:02:21;5.32;;;3.75;;
74935;SDS011;63501;55.570;37.488;2024-01-16T12:04:58;4.45;;;3.05;;
74935;SDS011;63501;55.570;37.488;2024-01-16T12:07:30;5.72;;;3.42;;
74935;SDS011;63501;55.570;37.488;2024-01-16T12:10:08;4.90;;;3.33;;
74935;SDS011;63501;55.570;37.488;2024-01-16T12:12:36;4.55;;;3.50;;
74935;SDS011;63501;55.570;37.488;2024-01-16T12:15:03;4.50;;;3.28;;
74935;SDS011;63501;55.570;37.488;2024-01-16T12:17:33;5.75;;;3.45;;
74935;SDS011;63501;55.570;37.488;2024-01-16T12:20:09;5.45;;;3.08;;
74935;SDS011;63501;55.570;37.488;2024-01-16T12:22:43;4.25;;;3.08;;
74935;SDS011;63501;55.570;37.488;2024-01-16T12:25:10;4.75;;;3.03;;
74935;SDS011;63501;55.570;37.488;2024-01-16T12:27:38;4.30;;;3.40;;
74935;SDS011;63501;55.570;37.488;2024-01-16T12:30:06;5.10;;;3.50;;
74935;SDS011;63501;55.570;37.488;2024-01-16T12:32:35;4.45;;;3.28;;
74935;SDS011;63501;55.570;37.488;2024-01-16T12:35:03;4.45;;;3.08;;
74935;SDS011;63501;55.570;37.488;2024-01-16T12:37:30;4.55;;;3.03;;
74935;SDS011;63501;55.570;37.488;2024-01-16T12:39:58;4.30;;;3.28;;
74935;SDS011;63501;55.570;37.488;2024-01-16T12:42:26;3.85;;;3.05;;
74935;SDS011;63501;55.570;37.488;2024-01-16T12:44:55;3.38;;;2.90;;
74935;SDS011;63501;55.570;37.488;2024-01-16T12:47:22;3.33;;;3.00;;
74935;SDS011;63501;55.570;37.488;2024-01-16T12:52:20;4.53;;;3.20;;
74935;SDS011;63501;55.570;37.488;2024-01-16T12:54:58;3.67;;;2.95;;
74935;SDS011;63501;55.570;37.488;2024-01-16T12:57:26;4.78;;;3.42;;
74935;SDS011;63501;55.570;37.488;2024-01-16T13:02:22;5.05;;;3.28;;
74935;SDS011;63501;55.570;37.488;2024-01-16T13:04:58;5.18;;;3.38;;
74935;SDS011;63501;55.570;37.488;2024-01-16T13:07:28;3.67;;;2.78;;
74935;SDS011;63501;55.570;37.488;2024-01-16T13:10:07;5.05;;;3.20;;
74935;SDS011;63501;55.570;37.488;2024-01-16T13:12:37;5.22;;;3.47;;
74935;SDS011;63501;55.570;37.488;2024-01-16T13:15:04;4.85;;;3.38;;
74935;SDS011;63501;55.570;37.488;2024-01-16T13:17:32;5.05;;;3.20;;
74935;SDS011;63501;55.570;37.488;2024-01-16T13:20:02;6.82;;;3.15;;
74935;SDS011;63501;55.570;37.488;2024-01-16T13:22:33;5.18;;;3.20;;
74935;SDS011;63501;55.570;37.488;2024-01-16T13:25:00;3.92;;;2.85;;
74935;SDS011;63501;55.570;37.488;2024-01-16T13:29:55;4.03;;;3.05;;
74935;SDS011;63501;55.570;37.488;2024-01-16T13:32:23;4.25;;;2.90;;
74935;SDS011;63501;55.570;37.488;2024-01-16T13:34:51;4.53;;;3.28;;
74935;SDS011;63501;55.570;37.488;2024-01-16T13:37:21;4.63;;;2.92;;
74935;SDS011;63501;55.570;37.488;2024-01-16T13:39:49;4.97;;;3.30;;
74935;SDS011;63501;55.570;37.488;2024-01-16T13:42:16;5.50;;;3.20;;
74935;SDS011;63501;55.570;37.488;2024-01-16T13:44:45;4.30;;;2.75;;
74935;SDS011;63501;55.570;37.488;2024-01-16T13:47:14;4.32;;;3.35;;
74935;SDS011;63501;55.570;37.488;2024-01-16T13:49:44;4.45;;;2.78;;
74935;SDS011;63501;55.570;37.488;2024-01-16T13:52:12;5.50;;;3.10;;
74935;SDS011;63501;55.570;37.488;2024-01-16T13:57:08;4.43;;;3.10;;
74935;SDS011;63501;55.570;37.488;2024-01-16T13:59:39;4.65;;;3.20;;
74935;SDS011;63501;55.570;37.488;2024-01-16T14:02:06;4.25;;;2.88;;
74935;SDS011;63501;55.570;37.488;2024-01-16T14:04:34;5.35;;;3.20;;
74935;SDS011;63501;55.570;37.488;2024-01-16T14:07:02;6.30;;;3.70;;
74935;SDS011;63501;55.570;37.488;2024-01-16T14:09:32;4.30;;;3.22;;
74935;SDS011;63501;55.570;37.488;2024-01-16T14:12:02;4.20;;;2.83;;
74935;SDS011;63501;55.570;37.488;2024-01-16T14:14:33;3.95;;;3.42;;
74935;SDS011;63501;55.570;37.488;2024-01-16T14:17:01;4.47;;;2.78;;
74935;SDS011;63501;55.570;37.488;2024-01-16T14:19:29;5.70;;;3.72;;
74935;SDS011;63501;55.570;37.488;2024-01-16T14:22:13;5.82;;;3.58;;
74935;SDS011;63501;55.570;37.488;2024-01-16T14:24:41;5.38;;;3.60;;
74935;SDS011;63501;55.570;37.488;2024-01-16T14:27:10;4.32;;;2.90;;
74935;SDS011;63501;55.570;37.488;2024-01-16T14:29:37;4.25;;;3.17;;
74935;SDS011;63501;55.570;37.488;2024-01-16T14:32:05;4.85;;;3.42;;
74935;SDS011;63501;55.570;37.488;2024-01-16T14:34:32;5.07;;;3.63;;
74935;SDS011;63501;55.570;37.488;2024-01-16T14:36:59;4.68;;;3.50;;
74935;SDS011;63501;55.570;37.488;2024-01-16T14:44:43;4.53;;;3.47;;
74935;SDS011;63501;55.570;37.488;2024-01-16T14:47:11;5.25;;;3.38;;
74935;SDS011;63501;55.570;37.488;2024-01-16T14:49:38;5.00;;;3.55;;
74935;SDS011;63501;55.570;37.488;2024-01-16T14:52:05;6.43;;;4.00;;
74935;SDS011;63501;55.570;37.488;2024-01-16T14:54:33;5.95;;;4.00;;
74935;SDS011;63501;55.570;37.488;2024-01-16T14:57:00;7.78;;;3.95;;
74935;SDS011;63501;55.570;37.488;2024-01-16T14:59:29;6.45;;;3.95;;
74935;SDS011;63501;55.570;37.488;2024-01-16T15:01:57;6.10;;;3.97;;
74935;SDS011;63501;55.570;37.488;2024-01-16T15:04:24;6.50;;;4.15;;
74935;SDS011;63501;55.570;37.488;2024-01-16T15:09:20;5.07;;;3.90;;
74935;SDS011;63501;55.570;37.488;2024-01-16T15:14:15;6.28;;;4.03;;
74935;SDS011;63501;55.570;37.488;2024-01-16T15:16:46;5.57;;;4.03;;
74935;SDS011;63501;55.570;37.488;2024-01-16T15:19:14;5.05;;;3.88;;
74935;SDS011;63501;55.570;37.488;2024-01-16T15:24:09;7.82;;;4.45;;
74935;SDS011;63501;55.570;37.488;2024-01-16T15:26:41;6.22;;;4.55;;
74935;SDS011;63501;55.570;37.488;2024-01-16T15:29:09;8.20;;;4.50;;
74935;SDS011;63501;55.570;37.488;2024-01-16T15:31:37;7.10;;;4.50;;
74935;SDS011;63501;55.570;37.488;2024-01-16T15:34:06;5.88;;;4.15;;
74935;SDS011;63501;55.570;37.488;2024-01-16T15:36:33;5.05;;;3.83;;
74935;SDS011;63501;55.570;37.488;2024-01-16T15:39:00;5.63;;;4.05;;
74935;SDS011;63501;55.570;37.488;2024-01-16T15:41:29;7.45;;;4.47;;
74935;SDS011;63501;55.570;37.488;2024-01-16T15:43:57;5.28;;;3.95;;
74935;SDS011;63501;55.570;37.488;2024-01-16T15:46:25;5.97;;;4.60;;
74935;SDS011;63501;55.570;37.488;2024-01-16T15:48:53;6.40;;;4.55;;
74935;SDS011;63501;55.570;37.488;2024-01-16T15:51:23;5.45;;;4.22;;
74935;SDS011;63501;55.570;37.488;2024-01-16T15:53:50;6.35;;;4.32;;
74935;SDS011;63501;55.570;37.488;2024-01-16T15:56:17;6.00;;;4.03;;